sensor_id;sensor_type;location;lat;lon;timestamp;temperature;humidity
7844;DHT22;3967;48.702;9.326;2022-10-19T00:00:50;15.60;99.90
7844;DHT22;3967;48.702;9.326;2022-10-19T00:03:25;15.60;99.90
7844;DHT22;3967;48.702;9.326;2022-10-19T00:05:52;15.60;99.90
7844;DHT22;3967;48.702;9.326;2022-10-19T00:08:19;15.70;99.90
7844;DHT22;3967;48.702;9.326;2022-10-19T00:10:45;15.70;99.90
7844;DHT22;3967;48.702;9.326;2022-10-19T00:13:12;15.70;99.90
7844;DHT22;3967;48.702;9.326;2022-10-19T00:15:39;15.60;99.90
7844;DHT22;3967;48.702;9.326;2022-10-19T00:18:07;15.60;99.90
7844;DHT22;3967;48.702;9.326;2022-10-19T00:20:35;15.60;99.90
7844;DHT22;3967;48.702;9.326;2022-10-19T00:23:02;15.60;99.90
7844;DHT22;3967;48.702;9.326;2022-10-19T00:25:28;15.60;99.90
7844;DHT22;3967;48.702;9.326;2022-10-19T00:27:55;15.60;99.90
7844;DHT22;3967;48.702;9.326;2022-10-19T00:30:22;15.50;99.90
7844;DHT22;3967;48.702;9.326;2022-10-19T00:32:48;15.50;99.90
7844;DHT22;3967;48.702;9.326;2022-10-19T00:35:15;15.50;99.90
7844;DHT22;3967;48.702;9.326;2022-10-19T00:37:42;15.50;99.90
7844;DHT22;3967;48.702;9.326;2022-10-19T00:40:09;15.40;99.90
7844;DHT22;3967;48.702;9.326;2022-10-19T00:42:35;15.40;99.90
7844;DHT22;3967;48.702;9.326;2022-10-19T00:45:08;15.40;99.90
7844;DHT22;3967;48.702;9.326;2022-10-19T00:47:38;15.30;99.90
7844;DHT22;3967;48.702;9.326;2022-10-19T00:50:05;15.40;99.90
7844;DHT22;3967;48.702;9.326;2022-10-19T00:52:32;15.40;99.90
7844;DHT22;3967;48.702;9.326;2022-10-19T00:55:00;15.30;99.90
7844;DHT22;3967;48.702;9.326;2022-10-19T00:57:28;15.30;99.90
7844;DHT22;3967;48.702;9.326;2022-10-19T00:59:57;15.30;99.90
7844;DHT22;3967;48.702;9.326;2022-10-19T01:02:24;15.30;99.90
7844;DHT22;3967;48.702;9.326;2022-10-19T01:04:51;15.40;99.90
7844;DHT22;3967;48.702;9.326;2022-10-19T01:07:18;15.20;99.90
7844;DHT22;3967;48.702;9.326;2022-10-19T01:09:46;15.00;99.90
7844;DHT22;3967;48.702;9.326;2022-10-19T01:20:56;14.90;99.90
7844;DHT22;3967;48.702;9.326;2022-10-19T01:32:05;15.10;99.90
7844;DHT22;3967;48.702;9.326;2022-10-19T01:34:48;15.20;99.90
7844;DHT22;3967;48.702;9.326;2022-10-19T01:42:57;15.10;99.90
7844;DHT22;3967;48.702;9.326;2022-10-19T01:45:36;15.10;99.90
7844;DHT22;3967;48.702;9.326;2022-10-19T01:48:17;15.00;99.90
7844;DHT22;3967;48.702;9.326;2022-10-19T01:50:49;15.10;99.90
7844;DHT22;3967;48.702;9.326;2022-10-19T01:53:18;15.00;99.90
7844;DHT22;3967;48.702;9.326;2022-10-19T01:55:49;15.00;99.90
7844;DHT22;3967;48.702;9.326;2022-10-19T01:58:20;15.10;99.90
7844;DHT22;3967;48.702;9.326;2022-10-19T02:00:49;15.00;99.90
7844;DHT22;3967;48.702;9.326;2022-10-19T02:03:18;15.10;99.90
7844;DHT22;3967;48.702;9.326;2022-10-19T02:05:46;15.10;99.90
7844;DHT22;3967;48.702;9.326;2022-10-19T02:08:19;15.00;99.90
7844;DHT22;3967;48.702;9.326;2022-10-19T02:10:47;15.10;99.90
7844;DHT22;3967;48.702;9.326;2022-10-19T02:13:15;15.10;99.90
7844;DHT22;3967;48.702;9.326;2022-10-19T02:15:45;15.10;99.90
7844;DHT22;3967;48.702;9.326;2022-10-19T02:18:17;15.10;99.90
7844;DHT22;3967;48.702;9.326;2022-10-19T02:20:45;15.10;99.90
7844;DHT22;3967;48.702;9.326;2022-10-19T02:23:15;15.10;99.90
7844;DHT22;3967;48.702;9.326;2022-10-19T02:25:44;15.10;99.90
7844;DHT22;3967;48.702;9.326;2022-10-19T02:28:11;15.20;99.90
7844;DHT22;3967;48.702;9.326;2022-10-19T02:30:38;15.20;99.90
7844;DHT22;3967;48.702;9.326;2022-10-19T02:33:04;15.10;99.90
7844;DHT22;3967;48.702;9.326;2022-10-19T02:35:31;15.10;99.90
7844;DHT22;3967;48.702;9.326;2022-10-19T02:37:59;15.00;99.90
7844;DHT22;3967;48.702;9.326;2022-10-19T02:40:31;15.00;99.90
7844;DHT22;3967;48.702;9.326;2022-10-19T02:43:03;15.10;99.90
7844;DHT22;3967;48.702;9.326;2022-10-19T02:45:37;15.00;99.90
7844;DHT22;3967;48.702;9.326;2022-10-19T02:48:13;15.00;99.90
7844;DHT22;3967;48.702;9.326;2022-10-19T02:50:43;15.10;99.90
7844;DHT22;3967;48.702;9.326;2022-10-19T02:53:10;15.10;99.90
7844;DHT22;3967;48.702;9.326;2022-10-19T02:55:37;15.00;99.90
7844;DHT22;3967;48.702;9.326;2022-10-19T02:58:04;15.10;99.90
7844;DHT22;3967;48.702;9.326;2022-10-19T03:00:30;15.10;99.90
7844;DHT22;3967;48.702;9.326;2022-10-19T03:02:57;15.10;99.90
7844;DHT22;3967;48.702;9.326;2022-10-19T03:05:24;15.10;99.90
7844;DHT22;3967;48.702;9.326;2022-10-19T03:07:50;15.20;99.90
7844;DHT22;3967;48.702;9.326;2022-10-19T03:10:17;15.10;99.90
7844;DHT22;3967;48.702;9.326;2022-10-19T03:12:44;15.20;99.90
7844;DHT22;3967;48.702;9.326;2022-10-19T03:15:15;15.20;99.90
7844;DHT22;3967;48.702;9.326;2022-10-19T03:17:42;15.30;99.90
7844;DHT22;3967;48.702;9.326;2022-10-19T03:20:09;15.30;99.90
7844;DHT22;3967;48.702;9.326;2022-10-19T03:22:36;15.30;99.90
7844;DHT22;3967;48.702;9.326;2022-10-19T03:25:03;15.30;99.90
7844;DHT22;3967;48.702;9.326;2022-10-19T03:27:30;15.30;99.90
7844;DHT22;3967;48.702;9.326;2022-10-19T03:29:57;15.30;99.90
7844;DHT22;3967;48.702;9.326;2022-10-19T03:32:24;15.30;99.90
7844;DHT22;3967;48.702;9.326;2022-10-19T03:34:50;15.30;99.90
7844;DHT22;3967;48.702;9.326;2022-10-19T03:37:17;15.40;99.90
7844;DHT22;3967;48.702;9.326;2022-10-19T03:39:44;15.30;99.90
7844;DHT22;3967;48.702;9.326;2022-10-19T03:42:10;15.40;99.90
7844;DHT22;3967;48.702;9.326;2022-10-19T03:44:37;15.30;99.90
7844;DHT22;3967;48.702;9.326;2022-10-19T03:47:03;15.30;99.90
7844;DHT22;3967;48.702;9.326;2022-10-19T03:49:30;15.30;99.90
7844;DHT22;3967;48.702;9.326;2022-10-19T03:52:00;15.30;99.90
7844;DHT22;3967;48.702;9.326;2022-10-19T03:54:26;15.20;99.90
7844;DHT22;3967;48.702;9.326;2022-10-19T03:56:53;15.30;99.90
7844;DHT22;3967;48.702;9.326;2022-10-19T03:59:19;15.30;99.90
7844;DHT22;3967;48.702;9.326;2022-10-19T04:01:47;15.30;99.90
7844;DHT22;3967;48.702;9.326;2022-10-19T04:04:16;15.30;99.90
7844;DHT22;3967;48.702;9.326;2022-10-19T04:06:45;15.30;99.90
7844;DHT22;3967;48.702;9.326;2022-10-19T04:09:14;15.20;99.90
7844;DHT22;3967;48.702;9.326;2022-10-19T04:11:41;15.10;99.90
7844;DHT22;3967;48.702;9.326;2022-10-19T04:14:10;15.10;99.90
7844;DHT22;3967;48.702;9.326;2022-10-19T04:16:52;15.10;99.90
7844;DHT22;3967;48.702;9.326;2022-10-19T04:19:19;15.10;99.90
7844;DHT22;3967;48.702;9.326;2022-10-19T04:21:47;15.00;99.90
7844;DHT22;3967;48.702;9.326;2022-10-19T04:24:16;15.00;99.90
7844;DHT22;3967;48.702;9.326;2022-10-19T04:26:51;14.90;99.90
7844;DHT22;3967;48.702;9.326;2022-10-19T04:29:19;15.00;99.90
7844;DHT22;3967;48.702;9.326;2022-10-19T04:31:51;15.00;99.90
7844;DHT22;3967;48.702;9.326;2022-10-19T04:34:18;15.00;99.90
7844;DHT22;3967;48.702;9.326;2022-10-19T04:36:45;15.00;99.90
7844;DHT22;3967;48.702;9.326;2022-10-19T04:39:12;15.00;99.90
7844;DHT22;3967;48.702;9.326;2022-10-19T04:41:39;15.00;99.90
7844;DHT22;3967;48.702;9.326;2022-10-19T04:44:05;14.80;99.90
7844;DHT22;3967;48.702;9.326;2022-10-19T04:46:32;14.80;99.90
7844;DHT22;3967;48.702;9.326;2022-10-19T04:48:59;14.90;99.90
7844;DHT22;3967;48.702;9.326;2022-10-19T04:51:26;15.10;99.90
7844;DHT22;3967;48.702;9.326;2022-10-19T04:53:53;15.00;99.90
7844;DHT22;3967;48.702;9.326;2022-10-19T04:56:26;15.00;99.90
7844;DHT22;3967;48.702;9.326;2022-10-19T04:58:56;15.00;99.90
7844;DHT22;3967;48.702;9.326;2022-10-19T05:01:24;14.90;99.90
7844;DHT22;3967;48.702;9.326;2022-10-19T05:03:56;14.90;99.90
7844;DHT22;3967;48.702;9.326;2022-10-19T05:06:23;14.90;99.90
7844;DHT22;3967;48.702;9.326;2022-10-19T05:08:50;14.80;99.90
7844;DHT22;3967;48.702;9.326;2022-10-19T05:11:18;14.80;99.90
7844;DHT22;3967;48.702;9.326;2022-10-19T05:13:45;14.90;99.90
7844;DHT22;3967;48.702;9.326;2022-10-19T05:16:15;14.80;99.90
7844;DHT22;3967;48.702;9.326;2022-10-19T05:18:47;14.80;99.90
7844;DHT22;3967;48.702;9.326;2022-10-19T05:21:14;14.80;99.90
7844;DHT22;3967;48.702;9.326;2022-10-19T05:23:41;14.80;99.90
7844;DHT22;3967;48.702;9.326;2022-10-19T05:26:09;14.80;99.90
7844;DHT22;3967;48.702;9.326;2022-10-19T05:28:36;14.80;99.90
7844;DHT22;3967;48.702;9.326;2022-10-19T05:31:10;14.80;99.90
7844;DHT22;3967;48.702;9.326;2022-10-19T05:33:37;14.90;99.90
7844;DHT22;3967;48.702;9.326;2022-10-19T05:36:21;14.80;99.90
7844;DHT22;3967;48.702;9.326;2022-10-19T05:38:51;14.80;99.90
7844;DHT22;3967;48.702;9.326;2022-10-19T05:41:19;14.70;99.90
7844;DHT22;3967;48.702;9.326;2022-10-19T05:43:51;14.80;99.90
7844;DHT22;3967;48.702;9.326;2022-10-19T05:46:18;14.80;99.90
7844;DHT22;3967;48.702;9.326;2022-10-19T05:48:45;14.80;99.90
7844;DHT22;3967;48.702;9.326;2022-10-19T05:51:15;14.80;99.90
7844;DHT22;3967;48.702;9.326;2022-10-19T05:53:42;14.80;99.90
7844;DHT22;3967;48.702;9.326;2022-10-19T05:56:19;14.80;99.90
7844;DHT22;3967;48.702;9.326;2022-10-19T05:58:46;14.80;99.90
7844;DHT22;3967;48.702;9.326;2022-10-19T06:01:14;14.80;99.90
7844;DHT22;3967;48.702;9.326;2022-10-19T06:03:41;14.80;99.90
7844;DHT22;3967;48.702;9.326;2022-10-19T06:06:08;14.80;99.90
7844;DHT22;3967;48.702;9.326;2022-10-19T06:08:36;14.70;99.90
7844;DHT22;3967;48.702;9.326;2022-10-19T06:13:37;14.60;99.90
7844;DHT22;3967;48.702;9.326;2022-10-19T06:16:05;14.60;99.90
7844;DHT22;3967;48.702;9.326;2022-10-19T06:18:33;14.60;99.90
7844;DHT22;3967;48.702;9.326;2022-10-19T06:21:01;14.60;99.90
7844;DHT22;3967;48.702;9.326;2022-10-19T06:23:30;14.60;99.90
7844;DHT22;3967;48.702;9.326;2022-10-19T06:25:57;14.70;99.90
7844;DHT22;3967;48.702;9.326;2022-10-19T06:28:23;14.60;99.90
7844;DHT22;3967;48.702;9.326;2022-10-19T06:30:50;14.50;99.90
7844;DHT22;3967;48.702;9.326;2022-10-19T06:33:17;14.50;99.90
7844;DHT22;3967;48.702;9.326;2022-10-19T06:35:43;14.60;99.90
7844;DHT22;3967;48.702;9.326;2022-10-19T06:38:10;14.50;99.90
7844;DHT22;3967;48.702;9.326;2022-10-19T06:40:39;14.60;99.90
7844;DHT22;3967;48.702;9.326;2022-10-19T06:43:05;14.70;99.90
7844;DHT22;3967;48.702;9.326;2022-10-19T06:45:32;14.70;99.90
7844;DHT22;3967;48.702;9.326;2022-10-19T06:48:01;14.60;99.90
7844;DHT22;3967;48.702;9.326;2022-10-19T06:50:33;14.70;99.90
7844;DHT22;3967;48.702;9.326;2022-10-19T06:53:00;14.60;99.90
7844;DHT22;3967;48.702;9.326;2022-10-19T06:55:27;14.70;99.90
7844;DHT22;3967;48.702;9.326;2022-10-19T06:57:54;14.70;99.90
7844;DHT22;3967;48.702;9.326;2022-10-19T07:00:20;14.70;99.90
7844;DHT22;3967;48.702;9.326;2022-10-19T07:02:47;14.80;99.90
7844;DHT22;3967;48.702;9.326;2022-10-19T07:05:14;14.70;99.90
7844;DHT22;3967;48.702;9.326;2022-10-19T07:07:40;14.70;99.90
7844;DHT22;3967;48.702;9.326;2022-10-19T07:10:07;14.50;99.90
7844;DHT22;3967;48.702;9.326;2022-10-19T07:12:34;14.60;99.90
7844;DHT22;3967;48.702;9.326;2022-10-19T07:15:01;14.60;99.90
7844;DHT22;3967;48.702;9.326;2022-10-19T07:17:27;14.60;99.90
7844;DHT22;3967;48.702;9.326;2022-10-19T07:19:54;14.60;99.90
7844;DHT22;3967;48.702;9.326;2022-10-19T07:22:21;14.50;99.90
7844;DHT22;3967;48.702;9.326;2022-10-19T07:24:53;14.50;99.90
7844;DHT22;3967;48.702;9.326;2022-10-19T07:27:20;14.50;99.90
7844;DHT22;3967;48.702;9.326;2022-10-19T07:29:47;14.50;99.90
7844;DHT22;3967;48.702;9.326;2022-10-19T07:32:13;14.50;99.90
7844;DHT22;3967;48.702;9.326;2022-10-19T07:34:40;14.50;99.90
7844;DHT22;3967;48.702;9.326;2022-10-19T07:37:07;14.60;99.90
7844;DHT22;3967;48.702;9.326;2022-10-19T07:39:33;14.60;99.90
7844;DHT22;3967;48.702;9.326;2022-10-19T07:42:00;14.70;99.90
7844;DHT22;3967;48.702;9.326;2022-10-19T07:44:27;14.80;99.90
7844;DHT22;3967;48.702;9.326;2022-10-19T07:46:53;14.70;99.90
7844;DHT22;3967;48.702;9.326;2022-10-19T07:49:20;14.60;99.90
7844;DHT22;3967;48.702;9.326;2022-10-19T07:51:47;14.60;99.90
7844;DHT22;3967;48.702;9.326;2022-10-19T07:54:14;14.70;99.90
7844;DHT22;3967;48.702;9.326;2022-10-19T07:56:40;14.80;99.90
7844;DHT22;3967;48.702;9.326;2022-10-19T07:59:08;14.80;99.90
7844;DHT22;3967;48.702;9.326;2022-10-19T08:01:38;14.80;99.90
7844;DHT22;3967;48.702;9.326;2022-10-19T08:04:09;14.80;99.90
7844;DHT22;3967;48.702;9.326;2022-10-19T08:06:56;14.80;99.90
7844;DHT22;3967;48.702;9.326;2022-10-19T08:09:22;14.90;99.90
7844;DHT22;3967;48.702;9.326;2022-10-19T08:12:09;15.00;99.90
7844;DHT22;3967;48.702;9.326;2022-10-19T08:14:40;15.00;99.90
7844;DHT22;3967;48.702;9.326;2022-10-19T08:17:10;15.00;99.90
7844;DHT22;3967;48.702;9.326;2022-10-19T08:19:37;15.00;99.90
7844;DHT22;3967;48.702;9.326;2022-10-19T08:22:09;15.00;99.90
7844;DHT22;3967;48.702;9.326;2022-10-19T08:24:35;15.00;99.90
7844;DHT22;3967;48.702;9.326;2022-10-19T08:27:02;15.00;99.90
7844;DHT22;3967;48.702;9.326;2022-10-19T08:29:29;15.10;99.90
7844;DHT22;3967;48.702;9.326;2022-10-19T08:31:57;15.20;99.90
7844;DHT22;3967;48.702;9.326;2022-10-19T08:34:24;15.20;99.90
7844;DHT22;3967;48.702;9.326;2022-10-19T08:36:51;15.10;99.90
7844;DHT22;3967;48.702;9.326;2022-10-19T08:39:18;15.20;99.90
7844;DHT22;3967;48.702;9.326;2022-10-19T08:42:12;15.30;99.90
7844;DHT22;3967;48.702;9.326;2022-10-19T08:47:57;15.10;99.90
7844;DHT22;3967;48.702;9.326;2022-10-19T08:50:28;15.10;99.90
7844;DHT22;3967;48.702;9.326;2022-10-19T08:53:01;15.20;99.90
7844;DHT22;3967;48.702;9.326;2022-10-19T08:55:39;15.20;99.90
7844;DHT22;3967;48.702;9.326;2022-10-19T08:58:24;15.30;99.90
7844;DHT22;3967;48.702;9.326;2022-10-19T09:03:45;15.50;99.90
7844;DHT22;3967;48.702;9.326;2022-10-19T09:06:33;15.50;99.90
7844;DHT22;3967;48.702;9.326;2022-10-19T09:09:04;15.60;99.90
7844;DHT22;3967;48.702;9.326;2022-10-19T09:11:36;15.60;99.90
7844;DHT22;3967;48.702;9.326;2022-10-19T09:14:24;15.50;99.90
7844;DHT22;3967;48.702;9.326;2022-10-19T09:16:52;15.50;99.90
7844;DHT22;3967;48.702;9.326;2022-10-19T09:19:25;15.70;99.90
7844;DHT22;3967;48.702;9.326;2022-10-19T09:24:41;15.80;99.90
7844;DHT22;3967;48.702;9.326;2022-10-19T09:27:18;15.80;99.90
7844;DHT22;3967;48.702;9.326;2022-10-19T09:29:53;15.80;99.90
7844;DHT22;3967;48.702;9.326;2022-10-19T09:32:30;15.90;99.90
7844;DHT22;3967;48.702;9.326;2022-10-19T09:35:21;15.80;99.90
7844;DHT22;3967;48.702;9.326;2022-10-19T09:37:50;15.90;99.90
7844;DHT22;3967;48.702;9.326;2022-10-19T09:40:21;16.00;99.90
7844;DHT22;3967;48.702;9.326;2022-10-19T09:42:48;16.00;99.90
7844;DHT22;3967;48.702;9.326;2022-10-19T09:45:34;16.10;99.90
7844;DHT22;3967;48.702;9.326;2022-10-19T09:48:03;16.20;99.90
7844;DHT22;3967;48.702;9.326;2022-10-19T09:50:42;16.20;99.90
7844;DHT22;3967;48.702;9.326;2022-10-19T09:53:20;16.10;99.90
7844;DHT22;3967;48.702;9.326;2022-10-19T09:55:52;16.20;99.90
7844;DHT22;3967;48.702;9.326;2022-10-19T09:58:25;16.20;99.90
7844;DHT22;3967;48.702;9.326;2022-10-19T10:00:57;16.30;99.90
7844;DHT22;3967;48.702;9.326;2022-10-19T10:05:52;16.40;99.90
7844;DHT22;3967;48.702;9.326;2022-10-19T10:08:22;16.50;99.90
7844;DHT22;3967;48.702;9.326;2022-10-19T10:13:25;16.40;99.90
7844;DHT22;3967;48.702;9.326;2022-10-19T10:15:58;16.20;99.90
7844;DHT22;3967;48.702;9.326;2022-10-19T10:18:26;16.40;99.90
7844;DHT22;3967;48.702;9.326;2022-10-19T10:21:14;16.30;99.90
7844;DHT22;3967;48.702;9.326;2022-10-19T10:24:15;16.40;99.90
7844;DHT22;3967;48.702;9.326;2022-10-19T10:26:47;16.40;99.90
7844;DHT22;3967;48.702;9.326;2022-10-19T10:32:04;16.70;99.90
7844;DHT22;3967;48.702;9.326;2022-10-19T10:39:43;16.60;99.90
7844;DHT22;3967;48.702;9.326;2022-10-19T10:42:15;16.70;99.90
7844;DHT22;3967;48.702;9.326;2022-10-19T10:44:50;16.70;99.90
7844;DHT22;3967;48.702;9.326;2022-10-19T10:47:19;16.60;99.90
7844;DHT22;3967;48.702;9.326;2022-10-19T10:50:03;16.70;99.90
7844;DHT22;3967;48.702;9.326;2022-10-19T10:52:31;16.70;99.90
7844;DHT22;3967;48.702;9.326;2022-10-19T10:57:31;16.90;99.90
7844;DHT22;3967;48.702;9.326;2022-10-19T11:00:10;17.00;99.90
7844;DHT22;3967;48.702;9.326;2022-10-19T11:05:33;17.20;99.90
7844;DHT22;3967;48.702;9.326;2022-10-19T11:10:51;17.40;99.90
7844;DHT22;3967;48.702;9.326;2022-10-19T11:13:34;17.30;99.90
7844;DHT22;3967;48.702;9.326;2022-10-19T11:16:12;17.30;99.90
7844;DHT22;3967;48.702;9.326;2022-10-19T11:19:26;17.40;99.90
7844;DHT22;3967;48.702;9.326;2022-10-19T11:21:43;17.40;99.90
7844;DHT22;3967;48.702;9.326;2022-10-19T11:24:23;17.40;99.90
7844;DHT22;3967;48.702;9.326;2022-10-19T11:30:07;17.40;99.90
7844;DHT22;3967;48.702;9.326;2022-10-19T11:33:04;17.40;99.90
7844;DHT22;3967;48.702;9.326;2022-10-19T11:35:46;17.40;99.90
7844;DHT22;3967;48.702;9.326;2022-10-19T11:49:17;17.60;99.90
7844;DHT22;3967;48.702;9.326;2022-10-19T11:52:00;17.60;99.90
7844;DHT22;3967;48.702;9.326;2022-10-19T11:55:16;17.40;99.90
7844;DHT22;3967;48.702;9.326;2022-10-19T12:00:38;17.30;99.90
7844;DHT22;3967;48.702;9.326;2022-10-19T12:03:38;17.40;99.90
7844;DHT22;3967;48.702;9.326;2022-10-19T12:09:20;17.30;99.90
7844;DHT22;3967;48.702;9.326;2022-10-19T12:14:31;17.50;99.90
7844;DHT22;3967;48.702;9.326;2022-10-19T12:17:04;17.50;99.90
7844;DHT22;3967;48.702;9.326;2022-10-19T12:19:38;17.50;99.90
7844;DHT22;3967;48.702;9.326;2022-10-19T12:22:18;17.60;99.90
7844;DHT22;3967;48.702;9.326;2022-10-19T12:24:46;17.60;99.90
7844;DHT22;3967;48.702;9.326;2022-10-19T12:27:15;17.70;99.90
7844;DHT22;3967;48.702;9.326;2022-10-19T12:29:45;17.70;99.90
7844;DHT22;3967;48.702;9.326;2022-10-19T12:32:15;17.80;99.90
7844;DHT22;3967;48.702;9.326;2022-10-19T12:34:56;17.70;99.90
7844;DHT22;3967;48.702;9.326;2022-10-19T12:40:07;17.70;99.90
7844;DHT22;3967;48.702;9.326;2022-10-19T12:43:07;17.80;99.90
7844;DHT22;3967;48.702;9.326;2022-10-19T12:45:46;17.90;99.90
7844;DHT22;3967;48.702;9.326;2022-10-19T12:48:16;17.70;99.80
7844;DHT22;3967;48.702;9.326;2022-10-19T12:58:43;17.90;99.50
7844;DHT22;3967;48.702;9.326;2022-10-19T13:01:39;18.10;99.80
7844;DHT22;3967;48.702;9.326;2022-10-19T13:04:23;18.00;99.20
7844;DHT22;3967;48.702;9.326;2022-10-19T13:07:01;18.00;99.00
7844;DHT22;3967;48.702;9.326;2022-10-19T13:09:37;17.80;99.10
7844;DHT22;3967;48.702;9.326;2022-10-19T13:15:02;17.70;99.20
7844;DHT22;3967;48.702;9.326;2022-10-19T13:38:35;17.90;98.10
7844;DHT22;3967;48.702;9.326;2022-10-19T13:46:40;17.90;98.20
7844;DHT22;3967;48.702;9.326;2022-10-19T13:55:03;18.10;98.10
7844;DHT22;3967;48.702;9.326;2022-10-19T14:00:25;18.00;98.00
7844;DHT22;3967;48.702;9.326;2022-10-19T14:11:34;18.20;98.10
7844;DHT22;3967;48.702;9.326;2022-10-19T14:16:50;18.20;97.80
7844;DHT22;3967;48.702;9.326;2022-10-19T14:22:27;18.20;97.70
7844;DHT22;3967;48.702;9.326;2022-10-19T14:27:37;17.90;98.00
7844;DHT22;3967;48.702;9.326;2022-10-19T14:30:05;17.70;97.90
7844;DHT22;3967;48.702;9.326;2022-10-19T14:32:33;17.70;97.90
7844;DHT22;3967;48.702;9.326;2022-10-19T14:35:05;17.70;97.70
7844;DHT22;3967;48.702;9.326;2022-10-19T14:37:42;17.90;97.70
7844;DHT22;3967;48.702;9.326;2022-10-19T14:40:32;17.70;97.20
7844;DHT22;3967;48.702;9.326;2022-10-19T14:43:00;17.60;97.60
7844;DHT22;3967;48.702;9.326;2022-10-19T14:45:29;17.50;97.80
7844;DHT22;3967;48.702;9.326;2022-10-19T14:48:05;17.60;97.90
7844;DHT22;3967;48.702;9.326;2022-10-19T14:50:41;17.60;97.90
7844;DHT22;3967;48.702;9.326;2022-10-19T14:55:55;17.70;97.40
7844;DHT22;3967;48.702;9.326;2022-10-19T14:58:26;17.60;97.90
7844;DHT22;3967;48.702;9.326;2022-10-19T15:00:57;17.50;98.10
7844;DHT22;3967;48.702;9.326;2022-10-19T15:03:26;17.70;98.00
7844;DHT22;3967;48.702;9.326;2022-10-19T15:05:57;17.90;97.80
7844;DHT22;3967;48.702;9.326;2022-10-19T15:08:40;17.80;97.50
7844;DHT22;3967;48.702;9.326;2022-10-19T15:11:35;17.70;97.70
7844;DHT22;3967;48.702;9.326;2022-10-19T15:16:48;17.70;97.50
7844;DHT22;3967;48.702;9.326;2022-10-19T15:22:22;18.00;97.30
7844;DHT22;3967;48.702;9.326;2022-10-19T15:30:20;17.90;97.10
7844;DHT22;3967;48.702;9.326;2022-10-19T15:35:29;17.90;97.10
7844;DHT22;3967;48.702;9.326;2022-10-19T15:38:14;18.00;97.50
7844;DHT22;3967;48.702;9.326;2022-10-19T15:40:43;18.00;97.50
7844;DHT22;3967;48.702;9.326;2022-10-19T15:46:06;17.90;97.20
7844;DHT22;3967;48.702;9.326;2022-10-19T15:53:59;17.80;97.00
7844;DHT22;3967;48.702;9.326;2022-10-19T15:56:30;17.70;97.20
7844;DHT22;3967;48.702;9.326;2022-10-19T15:59:00;17.70;97.00
7844;DHT22;3967;48.702;9.326;2022-10-19T16:01:30;17.70;97.00
7844;DHT22;3967;48.702;9.326;2022-10-19T16:03:58;17.60;96.90
7844;DHT22;3967;48.702;9.326;2022-10-19T16:06:27;17.60;97.00
7844;DHT22;3967;48.702;9.326;2022-10-19T16:08:55;17.50;97.10
7844;DHT22;3967;48.702;9.326;2022-10-19T16:11:24;17.50;97.10
7844;DHT22;3967;48.702;9.326;2022-10-19T16:13:51;17.30;97.30
7844;DHT22;3967;48.702;9.326;2022-10-19T16:16:22;17.20;97.60
7844;DHT22;3967;48.702;9.326;2022-10-19T16:18:49;17.30;97.70
7844;DHT22;3967;48.702;9.326;2022-10-19T16:21:17;17.40;97.50
7844;DHT22;3967;48.702;9.326;2022-10-19T16:23:44;17.40;97.50
7844;DHT22;3967;48.702;9.326;2022-10-19T16:26:13;17.20;97.70
7844;DHT22;3967;48.702;9.326;2022-10-19T16:28:41;17.20;98.00
7844;DHT22;3967;48.702;9.326;2022-10-19T16:31:08;17.10;98.20
7844;DHT22;3967;48.702;9.326;2022-10-19T16:33:35;16.90;98.20
7844;DHT22;3967;48.702;9.326;2022-10-19T16:36:06;17.00;98.40
7844;DHT22;3967;48.702;9.326;2022-10-19T16:38:33;17.00;98.20
7844;DHT22;3967;48.702;9.326;2022-10-19T16:41:01;16.80;98.50
7844;DHT22;3967;48.702;9.326;2022-10-19T16:43:29;16.80;98.40
7844;DHT22;3967;48.702;9.326;2022-10-19T16:45:56;16.70;99.00
7844;DHT22;3967;48.702;9.326;2022-10-19T16:48:23;16.80;98.80
7844;DHT22;3967;48.702;9.326;2022-10-19T16:53:33;16.70;98.70
7844;DHT22;3967;48.702;9.326;2022-10-19T16:56:08;16.70;98.90
7844;DHT22;3967;48.702;9.326;2022-10-19T16:58:35;16.70;98.80
7844;DHT22;3967;48.702;9.326;2022-10-19T17:01:10;16.70;98.60
7844;DHT22;3967;48.702;9.326;2022-10-19T17:03:38;16.80;98.90
7844;DHT22;3967;48.702;9.326;2022-10-19T17:06:06;16.80;98.50
7844;DHT22;3967;48.702;9.326;2022-10-19T17:08:33;16.60;98.70
7844;DHT22;3967;48.702;9.326;2022-10-19T17:11:26;16.60;98.80
7844;DHT22;3967;48.702;9.326;2022-10-19T17:13:55;16.40;99.10
7844;DHT22;3967;48.702;9.326;2022-10-19T17:16:23;16.60;99.10
7844;DHT22;3967;48.702;9.326;2022-10-19T17:18:52;16.70;99.00
7844;DHT22;3967;48.702;9.326;2022-10-19T17:21:21;16.60;99.10
7844;DHT22;3967;48.702;9.326;2022-10-19T17:24:00;16.60;99.10
7844;DHT22;3967;48.702;9.326;2022-10-19T17:26:29;16.60;99.00
7844;DHT22;3967;48.702;9.326;2022-10-19T17:28:57;16.70;98.90
7844;DHT22;3967;48.702;9.326;2022-10-19T17:31:25;16.60;98.90
7844;DHT22;3967;48.702;9.326;2022-10-19T17:33:53;16.70;98.90
7844;DHT22;3967;48.702;9.326;2022-10-19T17:36:26;16.70;98.70
7844;DHT22;3967;48.702;9.326;2022-10-19T17:38:59;16.70;98.70
7844;DHT22;3967;48.702;9.326;2022-10-19T17:41:26;16.70;98.70
7844;DHT22;3967;48.702;9.326;2022-10-19T17:43:53;16.60;98.80
7844;DHT22;3967;48.702;9.326;2022-10-19T17:46:23;16.60;99.00
7844;DHT22;3967;48.702;9.326;2022-10-19T17:48:50;16.60;98.80
7844;DHT22;3967;48.702;9.326;2022-10-19T17:51:26;16.40;99.10
7844;DHT22;3967;48.702;9.326;2022-10-19T17:53:56;16.40;99.10
7844;DHT22;3967;48.702;9.326;2022-10-19T17:56:24;16.40;99.30
7844;DHT22;3967;48.702;9.326;2022-10-19T17:58:51;16.40;99.30
7844;DHT22;3967;48.702;9.326;2022-10-19T18:01:19;16.50;99.50
7844;DHT22;3967;48.702;9.326;2022-10-19T18:03:47;16.50;99.70
7844;DHT22;3967;48.702;9.326;2022-10-19T18:06:26;16.40;99.90
7844;DHT22;3967;48.702;9.326;2022-10-19T18:08:55;16.40;99.90
7844;DHT22;3967;48.702;9.326;2022-10-19T18:11:30;16.40;99.90
7844;DHT22;3967;48.702;9.326;2022-10-19T18:13:59;16.40;99.80
7844;DHT22;3967;48.702;9.326;2022-10-19T18:16:32;16.50;99.90
7844;DHT22;3967;48.702;9.326;2022-10-19T18:19:00;16.40;99.80
7844;DHT22;3967;48.702;9.326;2022-10-19T18:21:30;16.30;99.90
7844;DHT22;3967;48.702;9.326;2022-10-19T18:24:00;16.20;99.90
7844;DHT22;3967;48.702;9.326;2022-10-19T18:26:29;16.20;99.90
7844;DHT22;3967;48.702;9.326;2022-10-19T18:28:57;16.20;99.90
7844;DHT22;3967;48.702;9.326;2022-10-19T18:31:26;16.10;99.90
7844;DHT22;3967;48.702;9.326;2022-10-19T18:34:02;15.90;99.90
7844;DHT22;3967;48.702;9.326;2022-10-19T18:36:30;16.00;99.90
7844;DHT22;3967;48.702;9.326;2022-10-19T18:39:00;16.00;99.90
7844;DHT22;3967;48.702;9.326;2022-10-19T18:41:27;16.00;99.90
7844;DHT22;3967;48.702;9.326;2022-10-19T18:43:58;15.90;99.90
7844;DHT22;3967;48.702;9.326;2022-10-19T18:46:25;15.90;99.90
7844;DHT22;3967;48.702;9.326;2022-10-19T18:48:52;15.80;99.90
7844;DHT22;3967;48.702;9.326;2022-10-19T18:51:21;15.80;99.90
7844;DHT22;3967;48.702;9.326;2022-10-19T18:53:49;15.80;99.90
7844;DHT22;3967;48.702;9.326;2022-10-19T18:56:18;15.80;99.90
7844;DHT22;3967;48.702;9.326;2022-10-19T18:58:45;15.80;99.90
7844;DHT22;3967;48.702;9.326;2022-10-19T19:01:13;15.70;99.90
7844;DHT22;3967;48.702;9.326;2022-10-19T19:03:43;15.70;99.90
7844;DHT22;3967;48.702;9.326;2022-10-19T19:06:17;15.60;99.90
7844;DHT22;3967;48.702;9.326;2022-10-19T19:08:48;15.70;99.90
7844;DHT22;3967;48.702;9.326;2022-10-19T19:11:16;15.70;99.90
7844;DHT22;3967;48.702;9.326;2022-10-19T19:13:49;15.60;99.90
7844;DHT22;3967;48.702;9.326;2022-10-19T19:16:16;15.70;99.90